TimeCDT,TemperatureF,Dew PointF,Humidity,Sea Level PressureIn,VisibilityMPH,Wind Direction,Wind SpeedMPH,Gust SpeedMPH,PrecipitationIn,Events,Conditions,WindDirDegrees,DateUTC
12:15 AM,66.7,60.3,80,30.20,10.0,North,18.4,-,N/A,Rain,Light Rain,350,2013-09-16 05:15:00
12:35 AM,65.8,60.1,82,30.20,10.0,North,17.3,25.3,N/A,,Overcast,360,2013-09-16 05:35:00
12:55 AM,65.3,59.9,83,30.20,10.0,North,18.4,24.2,N/A,,Overcast,350,2013-09-16 05:55:00
1:15 AM,64.2,58.8,83,30.21,10.0,North,17.3,25.3,N/A,,Mostly Cloudy,360,2013-09-16 06:15:00
1:35 AM,63.7,58.1,82,30.21,10.0,North,15.0,23.0,N/A,,Mostly Cloudy,10,2013-09-16 06:35:00
1:55 AM,63.5,57.6,81,30.22,10.0,North,13.8,23.0,N/A,,Mostly Cloudy,10,2013-09-16 06:55:00
2:15 AM,62.1,58.6,89,30.21,10.0,North,17.3,23.0,0.01,Rain,Light Rain,10,2013-09-16 07:15:00
2:35 AM,62.2,59.0,89,30.21,10.0,North,13.8,20.7,0.01,,Overcast,10,2013-09-16 07:35:00
2:55 AM,62.6,59.0,88,30.21,10.0,North,16.1,21.9,0.01,,Overcast,10,2013-09-16 07:55:00
3:15 AM,61.9,58.6,89,30.21,10.0,NNE,10.4,-,N/A,,Scattered Clouds,30,2013-09-16 08:15:00
3:35 AM,62.1,59.4,91,30.21,10.0,NNE,11.5,18.4,N/A,,Scattered Clouds,30,2013-09-16 08:35:00
3:55 AM,61.9,59.0,90,30.21,10.0,NNE,9.2,17.3,N/A,,Scattered Clouds,30,2013-09-16 08:55:00
4:15 AM,61.7,58.3,89,30.21,10.0,NE,10.4,-,N/A,,Clear,50,2013-09-16 09:15:00
4:35 AM,61.0,58.3,91,30.21,10.0,NE,6.9,-,N/A,,Clear,50,2013-09-16 09:35:00
4:55 AM,60.8,58.1,91,30.21,10.0,NE,8.1,-,N/A,,Clear,50,2013-09-16 09:55:00
5:15 AM,61.0,58.1,90,30.21,10.0,ENE,9.2,-,N/A,,Clear,60,2013-09-16 10:15:00
5:35 AM,60.8,58.1,91,30.21,10.0,ENE,9.2,-,N/A,,Clear,60,2013-09-16 10:35:00
5:55 AM,60.8,58.1,91,30.21,10.0,ENE,8.1,-,N/A,,Clear,70,2013-09-16 10:55:00
6:15 AM,60.8,58.1,91,30.21,10.0,ENE,8.1,-,N/A,,Scattered Clouds,70,2013-09-16 11:15:00
6:35 AM,60.8,58.1,91,30.22,7.0,ENE,6.9,-,N/A,,Mostly Cloudy,60,2013-09-16 11:35:00
6:55 AM,60.8,58.1,91,30.22,5.0,ENE,5.8,-,N/A,,Overcast,60,2013-09-16 11:55:00
7:15 AM,60.4,58.1,92,30.23,3.0,NE,4.6,-,N/A,,Mostly Cloudy,50,2013-09-16 12:15:00
7:35 AM,60.4,58.1,92,30.24,3.0,Calm,Calm,-,N/A,,Clear,0,2013-09-16 12:35:00
7:55 AM,60.3,57.9,92,30.24,3.0,NE,3.5,-,N/A,,Scattered Clouds,40,2013-09-16 12:55:00
8:15 AM,61.3,59.0,92,30.24,5.0,NE,3.5,-,N/A,,Overcast,40,2013-09-16 13:15:00
8:35 AM,62.2,58.8,89,30.26,10.0,ENE,3.5,-,N/A,,Scattered Clouds,60,2013-09-16 13:35:00
8:55 AM,62.6,58.5,86,30.26,10.0,ENE,4.6,-,N/A,,Scattered Clouds,60,2013-09-16 13:55:00
9:15 AM,63.7,59.0,85,30.25,10.0,ENE,5.8,-,N/A,,Scattered Clouds,60,2013-09-16 14:15:00
9:35 AM,63.9,59.0,84,30.26,10.0,NE,4.6,-,N/A,,Scattered Clouds,50,2013-09-16 14:35:00
9:55 AM,64.4,59.0,83,30.26,10.0,ENE,5.8,-,N/A,,Overcast,60,2013-09-16 14:55:00
10:15 AM,65.5,59.4,81,30.26,10.0,Calm,Calm,-,N/A,,Overcast,0,2013-09-16 15:15:00
10:35 AM,67.1,59.7,77,30.27,10.0,East,5.8,-,N/A,,Overcast,90,2013-09-16 15:35:00
10:55 AM,68.0,59.5,74,30.27,10.0,ESE,3.5,-,N/A,,Overcast,120,2013-09-16 15:55:00
11:15 AM,68.9,59.7,72,30.27,10.0,SE,3.5,-,N/A,,Overcast,140,2013-09-16 16:15:00
11:35 AM,70.0,60.1,71,30.27,10.0,East,4.6,-,N/A,,Overcast,90,2013-09-16 16:35:00
11:55 AM,72.3,60.3,66,30.27,10.0,NE,3.5,-,N/A,,Mostly Cloudy,40,2013-09-16 16:55:00
12:15 PM,72.7,60.3,65,30.27,10.0,Calm,Calm,-,N/A,,Mostly Cloudy,0,2013-09-16 17:15:00
12:35 PM,74.1,60.6,63,30.26,10.0,NE,5.8,-,N/A,,Scattered Clouds,50,2013-09-16 17:35:00
12:55 PM,75.7,60.8,60,30.26,10.0,ENE,4.6,-,N/A,,Scattered Clouds,70,2013-09-16 17:55:00
1:15 PM,77.2,60.3,56,30.26,10.0,Calm,Calm,-,N/A,,Clear,0,2013-09-16 18:15:00
1:35 PM,79.5,59.7,51,30.24,10.0,East,5.8,-,N/A,,Scattered Clouds,100,2013-09-16 18:35:00
1:55 PM,80.2,59.2,48,30.22,10.0,Calm,Calm,-,N/A,,Scattered Clouds,0,2013-09-16 18:55:00
2:15 PM,80.6,59.0,48,30.21,10.0,North,6.9,-,N/A,,Scattered Clouds,360,2013-09-16 19:15:00
2:35 PM,80.6,58.8,47,30.19,10.0,North,5.8,-,N/A,,Mostly Cloudy,10,2013-09-16 19:35:00
2:55 PM,78.8,58.5,50,30.18,10.0,Calm,Calm,-,N/A,,Scattered Clouds,0,2013-09-16 19:55:00
3:15 PM,78.4,59.9,53,30.19,10.0,SW,17.3,24.2,N/A,Rain-Thunderstorm,Heavy Thunderstorms and Rain,230,2013-09-16 20:15:00
3:35 PM,67.6,60.3,77,30.18,2.5,Calm,Calm,-,0.16,Rain-Thunderstorm,Rain,0,2013-09-16 20:35:00
3:55 PM,70.5,63.3,78,30.17,10.0,ESE,3.5,-,0.16,Thunderstorm,Scattered Clouds,120,2013-09-16 20:55:00
4:15 PM,70.7,63.3,77,30.18,10.0,SSE,4.6,-,N/A,,Scattered Clouds,150,2013-09-16 21:15:00
4:35 PM,70.9,63.0,76,30.18,10.0,Calm,Calm,-,N/A,Thunderstorm,Mostly Cloudy,0,2013-09-16 21:35:00
4:55 PM,70.3,62.2,75,30.18,10.0,SSW,6.9,-,N/A,,Mostly Cloudy,200,2013-09-16 21:55:00
5:15 PM,69.4,61.3,75,30.18,10.0,SE,12.7,17.3,N/A,,Scattered Clouds,130,2013-09-16 22:15:00
5:35 PM,68.0,61.5,80,30.17,10.0,East,10.4,-,N/A,,Scattered Clouds,100,2013-09-16 22:35:00
5:55 PM,67.8,62.2,82,30.17,10.0,ESE,8.1,-,N/A,,Clear,110,2013-09-16 22:55:00
6:15 PM,68.0,60.4,77,30.17,10.0,East,8.1,-,N/A,,Mostly Cloudy,90,2013-09-16 23:15:00
6:35 PM,68.0,61.5,80,30.16,10.0,ESE,12.7,-,N/A,,Scattered Clouds,110,2013-09-16 23:35:00
6:55 PM,68.0,61.3,79,30.17,10.0,ESE,8.1,-,N/A,,Clear,120,2013-09-16 23:55:00
7:15 PM,68.4,61.7,79,30.17,10.0,East,6.9,-,N/A,,Scattered Clouds,100,2013-09-17 00:15:00
7:35 PM,68.9,62.2,79,30.18,10.0,ENE,3.5,-,N/A,,Clear,60,2013-09-17 00:35:00
7:55 PM,68.4,61.3,78,30.18,10.0,South,5.8,-,N/A,,Scattered Clouds,170,2013-09-17 00:55:00
8:15 PM,68.0,61.7,80,30.19,10.0,SSE,5.8,-,N/A,,Clear,160,2013-09-17 01:15:00
8:35 PM,67.1,61.3,82,30.19,10.0,SE,6.9,-,N/A,,Clear,140,2013-09-17 01:35:00
8:55 PM,67.1,61.7,83,30.20,10.0,SSE,11.5,-,N/A,,Clear,150,2013-09-17 01:55:00
9:15 PM,66.7,62.1,85,30.21,10.0,SSE,11.5,-,N/A,,Scattered Clouds,160,2013-09-17 02:15:00
9:35 PM,66.6,61.9,85,30.21,10.0,SSE,9.2,-,N/A,,Clear,150,2013-09-17 02:35:00
9:55 PM,66.0,61.7,86,30.22,10.0,SE,9.2,-,N/A,,Clear,130,2013-09-17 02:55:00
10:15 PM,65.3,61.9,89,30.22,10.0,SE,6.9,-,N/A,,Clear,140,2013-09-17 03:15:00
10:35 PM,65.3,61.9,89,30.22,10.0,SE,5.8,-,N/A,,Scattered Clouds,140,2013-09-17 03:35:00
10:55 PM,65.1,61.7,89,30.22,10.0,SE,8.1,-,N/A,,Scattered Clouds,140,2013-09-17 03:55:00
11:15 PM,65.1,61.0,86,30.22,10.0,SSE,9.2,-,N/A,,Clear,160,2013-09-17 04:15:00
11:35 PM,64.8,60.8,87,30.22,10.0,SSE,8.1,-,N/A,,Clear,160,2013-09-17 04:35:00
11:55 PM,64.4,60.1,86,30.21,10.0,SSE,8.1,-,N/A,,Clear,160,2013-09-17 04:55:00